Citta Di Savona — IMDS — position and weather

sailwx.info

Track history (hours):
 
Tides and Currents Weather Stations Pressure Air Temp Water Temp Dewpoint Dewpoint Depression Visibility Wind Speed Wind Dir Waves Ship Positions

Citta Di Savona

Last reported at 2014-Dec-18 07:15 UTC. Time now 2014-Dec-19 01:34 UTC.
Position N 44°18' E 008°29'.

Length 31 m; draft 4.2 m.

Type: Tug. MMSI: 247402000.

Date/timePositionNaut miles runAvg speedWind from/ knotsBaromVisibWave heightAir tempDewpointWater temp
2014-Dec-18 07:15N 44°18' E 008°29'0 0.0
2014-Dec-18 06:33N 44°18' E 008°29'0 0.0
2014-Dec-18 05:15N 44°18' E 008°29'0 0.0
2014-Dec-18 04:15N 44°18' E 008°29'0 0.0
2014-Dec-18 03:33N 44°18' E 008°29'0 0.0
2014-Dec-18 02:30N 44°18' E 008°29'0 0.0
2014-Dec-18 01:15N 44°18' E 008°29'0 0.0
2014-Dec-18 00:30N 44°18' E 008°29'0 0.0
2014-Dec-17 11:32N 44°18' E 008°29'1 1.3
2014-Dec-17 10:31N 44°17' E 008°28'1 0.6
2014-Dec-17 08:20N 44°18' E 008°29'0 0.0
2014-Dec-17 07:32N 44°18' E 008°29'0 0.0
2014-Dec-17 06:20N 44°18' E 008°29'1 1.0
2014-Dec-17 05:32N 44°19' E 008°30'1 0.4
2014-Dec-17 03:32N 44°18' E 008°29'0 0.0
2014-Dec-17 02:26N 44°18' E 008°29'0 0.0
2014-Dec-17 01:29N 44°18' E 008°29'0 0.0
2014-Dec-16 05:20N 44°18' E 008°29'0 0.0
2014-Dec-16 01:09N 44°18' E 008°29'0 0.0
2014-Dec-15 15:24N 44°18' E 008°29'0 0.0
2014-Dec-15 08:05N 44°18' E 008°29'0 0.0
2014-Dec-15 07:29N 44°18' E 008°29'0 0.0
2014-Dec-15 06:14N 44°18' E 008°29'0 0.0
2014-Dec-14 18:26N 44°18' E 008°29'0 0.0
2014-Dec-14 16:16N 44°18' E 008°29'0 0.0
2014-Dec-14 15:25N 44°18' E 008°29'0 0.0
2014-Dec-14 14:25N 44°18' E 008°29'0 0.0
2014-Dec-14 13:28N 44°18' E 008°29'0 0.0
2014-Dec-14 12:31N 44°18' E 008°29'0 0.0
2014-Dec-14 11:22N 44°18' E 008°29'0 0.0
2014-Dec-14 09:28N 44°18' E 008°29'0 0.0
2014-Dec-13 22:14N 44°19' E 008°30'3 3.7
2014-Dec-13 21:17N 44°16' E 008°27'1 0.4
2014-Dec-13 19:32N 44°16' E 008°28'0 0.2
2014-Dec-13 17:30N 44°17' E 008°28'2 0.2
2014-Dec-13 08:15N 44°18' E 008°29'0 0.0
2014-Dec-13 06:09N 44°18' E 008°29'1 0.7
2014-Dec-13 05:18N 44°19' E 008°30'1 0.0
2014-Dec-12 16:08N 44°18' E 008°29'0 0.0
2014-Dec-12 15:32N 44°18' E 008°29'2 0.3
2014-Dec-12 08:26N 44°17' E 008°28'2 0.9
2014-Dec-12 06:31N 44°18' E 008°30'1 0.0
2014-Dec-11 11:05N 44°18' E 008°29'0 0.0
2014-Dec-11 10:17N 44°18' E 008°29'0 0.0
2014-Dec-11 08:17N 44°18' E 008°29'0 0.0
2014-Dec-11 07:29N 44°18' E 008°29'0 0.0
2014-Dec-11 05:17N 44°18' E 008°29'0 0.0
2014-Dec-10 10:21N 44°18' E 008°29'0 0.0
2014-Dec-10 08:06N 44°18' E 008°29'0 0.0
2014-Dec-10 07:33N 44°18' E 008°29'0 0.0
2014-Dec-10 06:34N 44°18' E 008°29'0 0.0
2014-Dec-10 05:24N 44°18' E 008°29'0 0.0
2014-Dec-09 13:15N 44°18' E 008°29'0 0.0
2014-Dec-09 11:33N 44°18' E 008°29'0 0.0
2014-Dec-09 10:33N 44°18' E 008°29'0 0.0
2014-Dec-09 09:33N 44°18' E 008°29'0 0.0
2014-Dec-09 08:17N 44°18' E 008°29'0 0.0
2014-Dec-09 07:33N 44°18' E 008°29'0 0.0
2014-Dec-09 06:33N 44°18' E 008°29'0 0.0
2014-Dec-09 05:17N 44°18' E 008°29'0 0.0
2014-Dec-09 04:17N 44°18' E 008°29'0 0.0
2014-Dec-09 03:33N 44°18' E 008°29'0 0.0
2014-Dec-09 02:32N 44°18' E 008°29'0 0.0
2014-Dec-09 01:33N 44°18' E 008°29'0 0.0
2014-Dec-09 00:33N 44°18' E 008°29'0 0.0
2014-Dec-08 23:31N 44°18' E 008°29'0 0.0
2014-Dec-08 14:17N 44°18' E 008°29'0 0.0
2014-Dec-08 13:16N 44°18' E 008°29'0 0.0
2014-Dec-08 12:20N 44°18' E 008°29'0 0.0
2014-Dec-08 11:33N 44°18' E 008°29'0 0.0
2014-Dec-08 10:33N 44°18' E 008°29'0 0.0
2014-Dec-08 08:16N 44°18' E 008°29'0 0.0
2014-Dec-08 07:33N 44°18' E 008°29'  
Track history (hours):
 
Tides and Currents Weather Stations Pressure Air Temp Water Temp Dewpoint Dewpoint Depression Visibility Wind Speed Wind Dir Waves Ship Positions

Citta Di Savona

Last reported at 2014-Dec-18 07:15 UTC. Time now 2014-Dec-19 01:34 UTC.
Position N 44°18' E 008°29'.

Length 31 m; draft 4.2 m.

Type: Tug. MMSI: 247402000.

Date/timePositionNaut miles runAvg speedWind from/ knotsBaromVisibWave heightAir tempDewpointWater temp
2014-Dec-18 07:15N 44°18' E 008°29'0 0.0
2014-Dec-18 06:33N 44°18' E 008°29'0 0.0
2014-Dec-18 05:15N 44°18' E 008°29'0 0.0
2014-Dec-18 04:15N 44°18' E 008°29'0 0.0
2014-Dec-18 03:33N 44°18' E 008°29'0 0.0
2014-Dec-18 02:30N 44°18' E 008°29'0 0.0
2014-Dec-18 01:15N 44°18' E 008°29'0 0.0
2014-Dec-18 00:30N 44°18' E 008°29'0 0.0
2014-Dec-17 11:32N 44°18' E 008°29'1 1.3
2014-Dec-17 10:31N 44°17' E 008°28'1 0.6
2014-Dec-17 08:20N 44°18' E 008°29'0 0.0
2014-Dec-17 07:32N 44°18' E 008°29'0 0.0
2014-Dec-17 06:20N 44°18' E 008°29'1 1.0
2014-Dec-17 05:32N 44°19' E 008°30'1 0.4
2014-Dec-17 03:32N 44°18' E 008°29'0 0.0
2014-Dec-17 02:26N 44°18' E 008°29'0 0.0
2014-Dec-17 01:29N 44°18' E 008°29'0 0.0
2014-Dec-16 05:20N 44°18' E 008°29'0 0.0
2014-Dec-16 01:09N 44°18' E 008°29'0 0.0
2014-Dec-15 15:24N 44°18' E 008°29'0 0.0
2014-Dec-15 08:05N 44°18' E 008°29'0 0.0
2014-Dec-15 07:29N 44°18' E 008°29'0 0.0
2014-Dec-15 06:14N 44°18' E 008°29'0 0.0
2014-Dec-14 18:26N 44°18' E 008°29'0 0.0
2014-Dec-14 16:16N 44°18' E 008°29'0 0.0
2014-Dec-14 15:25N 44°18' E 008°29'0 0.0
2014-Dec-14 14:25N 44°18' E 008°29'0 0.0
2014-Dec-14 13:28N 44°18' E 008°29'0 0.0
2014-Dec-14 12:31N 44°18' E 008°29'0 0.0
2014-Dec-14 11:22N 44°18' E 008°29'0 0.0
2014-Dec-14 09:28N 44°18' E 008°29'0 0.0
2014-Dec-13 22:14N 44°19' E 008°30'3 3.7
2014-Dec-13 21:17N 44°16' E 008°27'1 0.4
2014-Dec-13 19:32N 44°16' E 008°28'0 0.2
2014-Dec-13 17:30N 44°17' E 008°28'2 0.2
2014-Dec-13 08:15N 44°18' E 008°29'0 0.0
2014-Dec-13 06:09N 44°18' E 008°29'1 0.7
2014-Dec-13 05:18N 44°19' E 008°30'1 0.0
2014-Dec-12 16:08N 44°18' E 008°29'0 0.0
2014-Dec-12 15:32N 44°18' E 008°29'2 0.3
2014-Dec-12 08:26N 44°17' E 008°28'2 0.9
2014-Dec-12 06:31N 44°18' E 008°30'1 0.0
2014-Dec-11 11:05N 44°18' E 008°29'0 0.0
2014-Dec-11 10:17N 44°18' E 008°29'0 0.0
2014-Dec-11 08:17N 44°18' E 008°29'0 0.0
2014-Dec-11 07:29N 44°18' E 008°29'0 0.0
2014-Dec-11 05:17N 44°18' E 008°29'0 0.0
2014-Dec-10 10:21N 44°18' E 008°29'0 0.0
2014-Dec-10 08:06N 44°18' E 008°29'0 0.0
2014-Dec-10 07:33N 44°18' E 008°29'0 0.0
2014-Dec-10 06:34N 44°18' E 008°29'0 0.0
2014-Dec-10 05:24N 44°18' E 008°29'0 0.0
2014-Dec-09 13:15N 44°18' E 008°29'0 0.0
2014-Dec-09 11:33N 44°18' E 008°29'0 0.0
2014-Dec-09 10:33N 44°18' E 008°29'0 0.0
2014-Dec-09 09:33N 44°18' E 008°29'0 0.0
2014-Dec-09 08:17N 44°18' E 008°29'0 0.0
2014-Dec-09 07:33N 44°18' E 008°29'0 0.0
2014-Dec-09 06:33N 44°18' E 008°29'0 0.0
2014-Dec-09 05:17N 44°18' E 008°29'0 0.0
2014-Dec-09 04:17N 44°18' E 008°29'0 0.0
2014-Dec-09 03:33N 44°18' E 008°29'0 0.0
2014-Dec-09 02:32N 44°18' E 008°29'0 0.0
2014-Dec-09 01:33N 44°18' E 008°29'0 0.0
2014-Dec-09 00:33N 44°18' E 008°29'0 0.0
2014-Dec-08 23:31N 44°18' E 008°29'0 0.0
2014-Dec-08 14:17N 44°18' E 008°29'0 0.0
2014-Dec-08 13:16N 44°18' E 008°29'0 0.0
2014-Dec-08 12:20N 44°18' E 008°29'0 0.0
2014-Dec-08 11:33N 44°18' E 008°29'0 0.0
2014-Dec-08 10:33N 44°18' E 008°29'0 0.0
2014-Dec-08 08:16N 44°18' E 008°29'0 0.0
2014-Dec-08 07:33N 44°18' E 008°29'  

Dump ship's entire track history